Time;durP1;ratioP1;P1;durP2;ratioP2;P2;SDS_P1;SDS_P2;PMS_P1;PMS_P2;Temp;Humidity;BMP_temperature;BMP_pressure;BME280_temperature;BME280_humidity;BME280_pressure;Samples;Min_cycle;Max_cycle;Signal;HPM_P1;HPM_P2
2022/12/17 13:06:13;;;;;;;73.72;33.22;;;;;;;;;;5069172;28;20060;-65
2022/12/17 13:08:40;;;;;;;81.05;34.15;;;;;;;;;;5072288;28;20036;-65
2022/12/17 13:11:26;;;;;;;79.15;33.50;;;;;;;;;;5086653;28;20373;-65
2022/12/17 13:13:56;;;;;;;73.88;32.03;;;;;;;;;;5092440;28;20104;-65
2022/12/17 13:16:28;;;;;;;83.25;34.67;;;;;;;;;;5092916;28;20042;-65
2022/12/17 13:19:04;;;;;;;75.33;33.70;;;;;;;;;;5092326;28;20163;-65
2022/12/17 13:21:31;;;;;;;74.03;33.15;;;;;;;;;;5092324;28;20044;-65
2022/12/17 13:23:57;;;;;;;73.32;32.45;;;;;;;;;;5092735;28;20173;-65
2022/12/17 13:26:29;;;;;;;75.68;34.10;;;;;;;;;;5079404;28;20045;-65
2022/12/17 13:28:55;;;;;;;70.85;32.88;;;;;;;;;;5070618;28;20051;-65
2022/12/17 13:31:25;;;;;;;71.20;32.67;;;;;;;;;;5072302;28;20471;-65
2022/12/17 13:33:59;;;;;;;69.22;31.17;;;;;;;;;;5071026;28;20036;-65
2022/12/17 13:36:28;;;;;;;71.05;32.67;;;;;;;;;;5071656;28;20036;-65
2022/12/17 13:39:13;;;;;;;72.07;33.25;;;;;;;;;;5072166;28;20146;-65
2022/12/17 13:41:40;;;;;;;73.53;32.63;;;;;;;;;;5072248;28;20116;-65
2022/12/17 13:44:17;;;;;;;73.05;33.38;;;;;;;;;;5071792;28;20036;-65
2022/12/17 13:46:45;;;;;;;73.30;32.95;;;;;;;;;;5072027;28;20428;-65
2022/12/17 13:49:31;;;;;;;89.47;37.50;;;;;;;;;;5071991;28;20608;-65
2022/12/17 13:52:20;;;;;;;86.30;33.78;;;;;;;;;;5071487;28;20093;-65
2022/12/17 13:54:46;;;;;;;72.75;32.20;;;;;;;;;;5061215;28;20510;-65
2022/12/17 13:57:23;;;;;;;73.50;32.90;;;;;;;;;;5071922;28;20529;-65
2022/12/17 13:59:51;;;;;;;80.43;34.42;;;;;;;;;;5071247;28;20383;-65
2022/12/17 14:02:27;;;;;;;71.97;31.80;;;;;;;;;;5070564;28;20052;-65
2022/12/17 14:04:54;;;;;;;74.18;32.65;;;;;;;;;;5071637;28;20083;-65
2022/12/17 14:07:20;;;;;;;70.38;31.88;;;;;;;;;;5071076;28;20045;-65
2022/12/17 14:09:48;;;;;;;68.18;30.88;;;;;;;;;;5074089;28;20486;-65
2022/12/17 14:12:21;;;;;;;71.43;31.33;;;;;;;;;;5091823;28;20040;-65
2022/12/17 14:14:54;;;;;;;74.80;32.85;;;;;;;;;;5091364;28;20055;-65
2022/12/17 14:17:41;;;;;;;72.05;30.10;;;;;;;;;;5091563;28;20071;-65
2022/12/17 14:20:21;;;;;;;74.88;31.73;;;;;;;;;;5091326;28;20190;-65
2022/12/17 14:22:50;;;;;;;80.35;33.00;;;;;;;;;;5091354;28;20028;-65
2022/12/17 14:25:17;;;;;;;76.55;31.45;;;;;;;;;;5089430;28;20066;-65
2022/12/17 14:28:09;;;;;;;71.28;31.48;;;;;;;;;;5071175;28;20644;-65
2022/12/17 14:30:39;;;;;;;74.47;30.30;;;;;;;;;;5040344;28;20048;-65
2022/12/17 14:33:41;;;;;;;68.78;30.63;;;;;;;;;;5070639;28;20124;-65
2022/12/17 14:36:27;;;;;;;70.60;29.58;;;;;;;;;;5004769;28;20050;-65
2022/12/17 14:38:55;;;;;;;75.15;31.80;;;;;;;;;;5065476;28;20044;-65
2022/12/17 14:44:05;;;;;;;69.47;29.73;;;;;;;;;;5070446;28;20040;-65
2022/12/17 14:46:33;;;;;;;69.68;29.42;;;;;;;;;;5070772;28;20136;-65
2022/12/17 14:49:00;;;;;;;70.43;30.75;;;;;;;;;;5070958;28;20043;-65
2022/12/17 14:51:40;;;;;;;72.28;31.42;;;;;;;;;;5070524;28;20525;-65
2022/12/17 14:54:16;;;;;;;72.60;28.88;;;;;;;;;;5070898;28;20040;-65
2022/12/17 14:56:42;;;;;;;72.90;29.80;;;;;;;;;;5070930;28;20450;-65
2022/12/17 14:59:24;;;;;;;68.32;28.15;;;;;;;;;;5070445;28;20075;-65
2022/12/17 15:01:51;;;;;;;70.47;29.20;;;;;;;;;;5070735;28;20037;-65
2022/12/17 15:04:18;;;;;;;72.53;29.48;;;;;;;;;;5070776;28;20097;-65
2022/12/17 15:06:44;;;;;;;70.85;28.15;;;;;;;;;;5070457;28;20040;-65
2022/12/17 15:09:13;;;;;;;75.32;30.70;;;;;;;;;;5068003;28;20032;-65
2022/12/17 15:11:39;;;;;;;71.85;28.10;;;;;;;;;;5090381;28;20039;-65
2022/12/17 15:14:05;;;;;;;72.25;29.38;;;;;;;;;;5090284;28;20062;-65
2022/12/17 15:16:31;;;;;;;75.30;30.35;;;;;;;;;;5090896;28;20608;-65
2022/12/17 15:18:59;;;;;;;73.63;28.92;;;;;;;;;;5090366;28;20063;-65
2022/12/17 15:21:25;;;;;;;78.75;31.08;;;;;;;;;;5090196;28;20036;-65
2022/12/17 15:23:51;;;;;;;75.78;30.23;;;;;;;;;;5090774;28;20043;-65
2022/12/17 15:26:18;;;;;;;75.60;29.52;;;;;;;;;;5079639;28;20044;-65
2022/12/17 15:28:45;;;;;;;76.88;30.23;;;;;;;;;;5069835;28;20063;-65
2022/12/17 15:31:12;;;;;;;74.65;29.58;;;;;;;;;;5070392;28;20520;-65
2022/12/17 15:33:38;;;;;;;76.38;30.77;;;;;;;;;;5070330;28;20127;-65
2022/12/17 15:36:04;;;;;;;75.55;28.15;;;;;;;;;;5070178;28;20041;-65
2022/12/17 15:38:30;;;;;;;82.13;30.35;;;;;;;;;;5070131;28;20036;-65
2022/12/17 15:40:59;;;;;;;76.63;31.48;;;;;;;;;;5070377;28;20382;-65
2022/12/17 15:43:25;;;;;;;79.00;29.55;;;;;;;;;;5070126;28;20478;-65
2022/12/17 15:45:51;;;;;;;71.38;29.45;;;;;;;;;;5070352;28;20540;-65
2022/12/17 15:48:19;;;;;;;78.45;29.92;;;;;;;;;;5070366;28;20135;-65
2022/12/17 15:50:45;;;;;;;73.97;28.73;;;;;;;;;;5070146;28;20044;-65
2022/12/17 15:53:12;;;;;;;78.13;30.15;;;;;;;;;;5070241;28;20047;-65
2022/12/17 15:55:38;;;;;;;78.25;30.10;;;;;;;;;;5070096;28;20040;-65
2022/12/17 15:58:05;;;;;;;72.78;28.02;;;;;;;;;;5069640;28;20033;-65
2022/12/17 16:00:31;;;;;;;74.55;28.85;;;;;;;;;;5070209;28;20087;-65
2022/12/17 16:02:57;;;;;;;72.35;28.15;;;;;;;;;;5070177;28;20641;-65
2022/12/17 16:05:23;;;;;;;76.65;29.15;;;;;;;;;;5069989;28;20139;-65
2022/12/17 16:07:49;;;;;;;79.57;29.63;;;;;;;;;;5070157;28;20170;-65
2022/12/17 16:10:15;;;;;;;72.60;28.25;;;;;;;;;;5076701;28;20480;-65
2022/12/17 16:12:42;;;;;;;76.75;28.85;;;;;;;;;;5089801;28;20040;-65
2022/12/17 16:15:08;;;;;;;77.32;28.63;;;;;;;;;;5090288;28;20653;-65
2022/12/17 16:17:35;;;;;;;83.03;29.58;;;;;;;;;;5090029;28;20052;-65
2022/12/17 16:20:01;;;;;;;77.38;26.85;;;;;;;;;;5089773;28;20032;-65
2022/12/17 16:22:27;;;;;;;73.93;27.02;;;;;;;;;;5090174;28;20578;-65
2022/12/17 16:24:53;;;;;;;85.03;29.35;;;;;;;;;;5090002;28;20044;-65
2022/12/17 16:27:20;;;;;;;70.38;27.42;;;;;;;;;;5073702;28;20052;-65
2022/12/17 16:29:47;;;;;;;74.63;28.05;;;;;;;;;;5073772;28;20049;-65
2022/12/17 16:32:13;;;;;;;76.93;27.70;;;;;;;;;;5073564;28;20476;-65
2022/12/17 16:34:42;;;;;;;75.00;28.25;;;;;;;;;;5073090;28;20036;-65
2022/12/17 16:37:08;;;;;;;74.65;28.38;;;;;;;;;;5072972;28;20131;-65
2022/12/17 16:39:34;;;;;;;71.80;26.05;;;;;;;;;;5073575;28;20062;-65
2022/12/17 16:42:00;;;;;;;79.40;28.52;;;;;;;;;;5072784;28;20436;-65
2022/12/17 16:44:26;;;;;;;74.63;29.20;;;;;;;;;;5073415;28;20155;-66
2022/12/17 16:46:52;;;;;;;75.13;27.45;;;;;;;;;;5073058;28;20037;-65
2022/12/17 16:49:20;;;;;;;77.75;26.40;;;;;;;;;;5072573;28;20051;-65
2022/12/17 16:51:50;;;;;;;75.72;28.00;;;;;;;;;;5073123;28;20478;-65
2022/12/17 16:54:17;;;;;;;81.63;28.92;;;;;;;;;;5072911;28;20051;-65
2022/12/17 16:56:44;;;;;;;76.72;28.85;;;;;;;;;;5072528;28;20044;-65
2022/12/17 16:59:11;;;;;;;78.75;29.70;;;;;;;;;;5072870;28;20048;-65
2022/12/17 17:01:38;;;;;;;75.50;27.27;;;;;;;;;;5072771;28;20069;-65
2022/12/17 17:04:07;;;;;;;73.18;27.55;;;;;;;;;;5072621;28;20734;-65
2022/12/17 17:06:40;;;;;;;81.10;29.55;;;;;;;;;;5071544;28;20044;-65
2022/12/17 17:09:06;;;;;;;64.68;26.85;;;;;;;;;;5069704;28;20076;-65
2022/12/17 17:11:32;;;;;;;79.05;28.95;;;;;;;;;;5092289;28;20127;-65
2022/12/17 17:13:58;;;;;;;73.18;27.20;;;;;;;;;;5093228;28;20114;-66
2022/12/17 17:16:25;;;;;;;77.95;28.85;;;;;;;;;;5093404;28;20532;-65
2022/12/17 17:18:51;;;;;;;76.47;28.63;;;;;;;;;;5092316;28;20631;-65
2022/12/17 17:21:31;;;;;;;85.32;30.10;;;;;;;;;;5092702;28;20382;-65
2022/12/17 17:24:01;;;;;;;80.32;28.77;;;;;;;;;;5092693;28;20647;-65
2022/12/17 17:26:28;;;;;;;82.78;29.52;;;;;;;;;;5080113;28;20473;-65
2022/12/17 17:28:54;;;;;;;77.45;29.38;;;;;;;;;;5072526;28;20368;-65
2022/12/17 17:31:20;;;;;;;78.93;30.58;;;;;;;;;;5072104;28;20044;-65
2022/12/17 17:33:48;;;;;;;76.60;28.35;;;;;;;;;;5071744;28;20040;-65
2022/12/17 17:36:19;;;;;;;81.28;28.90;;;;;;;;;;5071872;28;20040;-65
2022/12/17 17:38:45;;;;;;;81.80;29.73;;;;;;;;;;5072287;28;20402;-65
2022/12/17 17:41:13;;;;;;;73.75;28.52;;;;;;;;;;5071800;28;20102;-65
2022/12/17 17:43:39;;;;;;;82.05;29.73;;;;;;;;;;5072328;28;20047;-65
2022/12/17 17:46:07;;;;;;;81.53;30.17;;;;;;;;;;5071776;28;20040;-65
2022/12/17 17:48:33;;;;;;;81.05;30.05;;;;;;;;;;5071769;28;20071;-65
2022/12/17 17:51:01;;;;;;;77.78;29.98;;;;;;;;;;5071870;28;20040;-65
2022/12/17 17:53:27;;;;;;;82.25;28.70;;;;;;;;;;5072034;28;20043;-65
2022/12/17 17:55:53;;;;;;;86.88;32.60;;;;;;;;;;5071665;28;20093;-65
2022/12/17 17:58:20;;;;;;;74.22;29.17;;;;;;;;;;5071572;28;20046;-65
2022/12/17 18:00:46;;;;;;;82.32;28.70;;;;;;;;;;5071734;28;20036;-65
2022/12/17 18:03:12;;;;;;;69.18;27.40;;;;;;;;;;5071591;28;20123;-65
2022/12/17 18:05:38;;;;;;;81.03;30.20;;;;;;;;;;5071743;28;20037;-65
2022/12/17 18:08:04;;;;;;;79.30;28.33;;;;;;;;;;5071857;28;20467;-65
2022/12/17 18:10:30;;;;;;;80.18;30.17;;;;;;;;;;5079963;28;20036;-65
2022/12/17 18:15:41;;;;;;;79.35;31.25;;;;;;;;;;5091869;28;20398;-65
2022/12/17 18:18:07;;;;;;;75.32;28.73;;;;;;;;;;5090992;28;20048;-65
2022/12/17 18:20:33;;;;;;;80.22;29.75;;;;;;;;;;5091673;28;20052;-65
2022/12/17 18:22:59;;;;;;;81.97;30.20;;;;;;;;;;5091501;28;20458;-65
2022/12/17 18:25:25;;;;;;;78.18;29.10;;;;;;;;;;5087369;28;20036;-65
2022/12/17 18:27:52;;;;;;;78.63;30.23;;;;;;;;;;5071264;28;20038;-65
2022/12/17 18:30:18;;;;;;;82.47;30.50;;;;;;;;;;5071280;28;20036;-65
2022/12/17 18:32:48;;;;;;;78.88;30.40;;;;;;;;;;5070642;28;20139;-65
2022/12/17 18:35:14;;;;;;;74.80;29.15;;;;;;;;;;5070978;28;20033;-65
2022/12/17 18:37:40;;;;;;;76.28;30.48;;;;;;;;;;5071048;28;20043;-65
2022/12/17 18:40:07;;;;;;;72.97;30.00;;;;;;;;;;5070407;28;20040;-65
2022/12/17 18:45:18;;;;;;;77.60;30.15;;;;;;;;;;5069642;28;20040;-65
2022/12/17 18:47:44;;;;;;;70.82;30.05;;;;;;;;;;5070600;28;20437;-65
2022/12/17 18:50:11;;;;;;;75.22;32.05;;;;;;;;;;5070614;28;20043;-65
2022/12/17 18:52:37;;;;;;;72.20;31.60;;;;;;;;;;5070625;28;20052;-65
2022/12/17 18:55:03;;;;;;;72.80;28.52;;;;;;;;;;5070700;28;20049;-65
2022/12/17 18:57:29;;;;;;;77.18;33.42;;;;;;;;;;5070558;28;20076;-65
2022/12/17 18:59:55;;;;;;;74.45;31.88;;;;;;;;;;5070547;28;20040;-65
2022/12/17 19:02:22;;;;;;;76.35;31.05;;;;;;;;;;5070074;28;20132;-65
2022/12/17 19:04:48;;;;;;;77.15;33.22;;;;;;;;;;5070699;28;20043;-65
2022/12/17 19:07:14;;;;;;;77.22;31.63;;;;;;;;;;5070751;28;20048;-65
2022/12/17 19:09:41;;;;;;;77.07;32.17;;;;;;;;;;5071470;28;20043;-65
2022/12/17 19:12:08;;;;;;;75.32;33.28;;;;;;;;;;5090540;28;20802;-65
2022/12/17 19:14:34;;;;;;;75.68;32.42;;;;;;;;;;5090950;28;20032;-65
2022/12/17 19:17:00;;;;;;;73.90;34.08;;;;;;;;;;5090111;28;20039;-65
2022/12/17 19:19:26;;;;;;;71.47;31.38;;;;;;;;;;5090300;28;20052;-65
2022/12/17 19:21:58;;;;;;;70.25;30.10;;;;;;;;;;5090647;28;20425;-65
2022/12/17 19:24:24;;;;;;;72.07;32.55;;;;;;;;;;5090450;28;20044;-65
2022/12/17 19:26:51;;;;;;;82.20;33.00;;;;;;;;;;5075465;28;20028;-65
2022/12/17 19:29:18;;;;;;;80.03;34.20;;;;;;;;;;5070586;28;20086;-65
2022/12/17 19:31:44;;;;;;;77.32;32.58;;;;;;;;;;5069899;28;20080;-65
2022/12/17 19:34:12;;;;;;;82.47;35.92;;;;;;;;;;5070438;28;20087;-65
2022/12/17 19:36:39;;;;;;;84.40;34.58;;;;;;;;;;5070577;28;20032;-65
2022/12/17 19:39:06;;;;;;;86.35;35.15;;;;;;;;;;5068725;28;20410;-65
2022/12/17 19:41:32;;;;;;;84.35;35.83;;;;;;;;;;5070415;28;20038;-65
2022/12/17 19:43:59;;;;;;;81.88;34.50;;;;;;;;;;5070471;28;20036;-65
2022/12/17 19:46:26;;;;;;;84.47;36.50;;;;;;;;;;5070032;28;20086;-65
2022/12/17 19:48:52;;;;;;;89.78;35.90;;;;;;;;;;5070381;28;20040;-65
2022/12/17 19:51:19;;;;;;;86.50;35.80;;;;;;;;;;5070313;28;20075;-65
2022/12/17 19:53:46;;;;;;;89.15;35.35;;;;;;;;;;5069796;28;20045;-65
2022/12/17 19:56:13;;;;;;;90.85;36.75;;;;;;;;;;5070271;28;20079;-65
2022/12/17 19:58:40;;;;;;;81.43;35.00;;;;;;;;;;5070133;28;20870;-65
2022/12/17 20:01:10;;;;;;;92.80;39.28;;;;;;;;;;5071291;28;20090;-65
2022/12/17 20:03:37;;;;;;;92.32;36.40;;;;;;;;;;5073865;28;20032;-65
2022/12/17 20:06:03;;;;;;;88.20;34.70;;;;;;;;;;5074030;28;20043;-65
2022/12/17 20:08:30;;;;;;;85.28;35.95;;;;;;;;;;5073232;28;20052;-65
2022/12/17 20:10:56;;;;;;;92.38;37.22;;;;;;;;;;5086117;28;20036;-65
2022/12/17 20:13:22;;;;;;;83.72;34.65;;;;;;;;;;5094058;28;20066;-65
2022/12/17 20:15:48;;;;;;;80.00;33.67;;;;;;;;;;5093775;28;20040;-65
2022/12/17 20:18:14;;;;;;;84.90;34.83;;;;;;;;;;5093844;28;20050;-65
2022/12/17 20:20:40;;;;;;;92.60;36.10;;;;;;;;;;5094138;28;20044;-65
2022/12/17 20:23:06;;;;;;;89.13;35.75;;;;;;;;;;5093477;28;20085;-65
2022/12/17 20:25:32;;;;;;;80.18;32.63;;;;;;;;;;5089644;28;20068;-65
2022/12/17 20:27:58;;;;;;;82.03;33.20;;;;;;;;;;5073693;28;20068;-65
2022/12/17 20:30:24;;;;;;;85.20;35.17;;;;;;;;;;5073415;28;20097;-66
2022/12/17 20:32:52;;;;;;;78.47;32.80;;;;;;;;;;5073347;28;20032;-65
2022/12/17 20:35:19;;;;;;;73.30;31.23;;;;;;;;;;5073372;28;20099;-65
2022/12/17 20:37:45;;;;;;;85.55;33.83;;;;;;;;;;5073325;28;20032;-65
2022/12/17 20:40:11;;;;;;;80.85;31.85;;;;;;;;;;5073372;28;20390;-65
2022/12/17 20:42:37;;;;;;;80.80;32.95;;;;;;;;;;5072907;28;20043;-65
2022/12/17 20:45:04;;;;;;;77.03;32.75;;;;;;;;;;5073240;28;20029;-65
2022/12/17 20:47:30;;;;;;;77.47;30.52;;;;;;;;;;5072835;28;20087;-65
2022/12/17 20:49:56;;;;;;;75.25;29.75;;;;;;;;;;5073239;28;20040;-65
2022/12/17 20:52:22;;;;;;;78.63;32.38;;;;;;;;;;5073244;28;20481;-65
2022/12/17 20:54:48;;;;;;;83.00;33.30;;;;;;;;;;5072757;28;20055;-65
2022/12/17 20:57:14;;;;;;;80.72;33.25;;;;;;;;;;5073204;28;20376;-65
2022/12/17 20:59:40;;;;;;;84.05;33.85;;;;;;;;;;5073068;28;20040;-65
2022/12/17 21:02:06;;;;;;;83.10;33.53;;;;;;;;;;5072268;28;20059;-65
2022/12/17 21:04:32;;;;;;;81.75;32.38;;;;;;;;;;5072724;28;20044;-65
2022/12/17 21:06:58;;;;;;;76.53;30.88;;;;;;;;;;5073021;28;20359;-65
2022/12/17 21:09:24;;;;;;;73.60;31.33;;;;;;;;;;5071667;28;20041;-65
2022/12/17 21:11:50;;;;;;;78.68;31.25;;;;;;;;;;5092794;28;20032;-65
2022/12/17 21:14:17;;;;;;;88.00;34.50;;;;;;;;;;5092877;28;20082;-65
2022/12/17 21:16:44;;;;;;;80.88;32.03;;;;;;;;;;5092689;28;20055;-65
2022/12/17 21:19:12;;;;;;;93.85;35.78;;;;;;;;;;5092424;28;20063;-65
2022/12/17 21:21:39;;;;;;;80.60;32.33;;;;;;;;;;5092817;28;20085;-65
2022/12/17 21:24:05;;;;;;;85.50;32.97;;;;;;;;;;5092221;28;20036;-65
2022/12/17 21:26:33;;;;;;;84.18;32.75;;;;;;;;;;5078878;28;20040;-65
2022/12/17 21:29:00;;;;;;;83.05;31.73;;;;;;;;;;5072135;28;20040;-65
2022/12/17 21:31:31;;;;;;;80.03;31.45;;;;;;;;;;5071922;28;20037;-65
2022/12/17 21:33:59;;;;;;;91.82;34.03;;;;;;;;;;5072301;28;20043;-65
2022/12/17 21:36:25;;;;;;;85.30;32.35;;;;;;;;;;5072126;28;20047;-65
2022/12/17 21:38:51;;;;;;;81.35;33.03;;;;;;;;;;5070432;28;20059;-65
2022/12/17 21:41:19;;;;;;;89.93;34.58;;;;;;;;;;5072184;28;20083;-65
2022/12/17 21:43:45;;;;;;;93.00;35.42;;;;;;;;;;5072172;28;20108;-65
2022/12/17 21:46:12;;;;;;;94.10;33.38;;;;;;;;;;5071921;28;20044;-65
2022/12/17 21:48:40;;;;;;;85.60;32.92;;;;;;;;;;5071017;28;20052;-65
2022/12/17 21:51:07;;;;;;;88.38;33.70;;;;;;;;;;5070712;28;20072;-65
2022/12/17 21:53:33;;;;;;;93.40;32.53;;;;;;;;;;5071624;28;20039;-65
2022/12/17 21:56:03;;;;;;;79.38;32.45;;;;;;;;;;5072018;28;20044;-66
2022/12/17 21:58:29;;;;;;;82.40;32.53;;;;;;;;;;5071915;28;20045;-65
2022/12/17 22:00:55;;;;;;;82.25;29.88;;;;;;;;;;5071475;28;20458;-65
2022/12/17 22:03:21;;;;;;;81.78;31.70;;;;;;;;;;5071805;28;20040;-65
2022/12/17 22:05:47;;;;;;;84.22;31.52;;;;;;;;;;5071880;28;20045;-65
2022/12/17 22:08:14;;;;;;;82.65;30.23;;;;;;;;;;5071496;28;20082;-65
2022/12/17 22:10:43;;;;;;;72.53;27.90;;;;;;;;;;5081444;28;20040;-65
2022/12/17 22:16:11;;;;;;;76.95;27.50;;;;;;;;;;5028455;28;20715;-65
2022/12/17 22:18:40;;;;;;;80.68;29.02;;;;;;;;;;5078335;28;20050;-65
2022/12/17 22:21:06;;;;;;;78.70;30.00;;;;;;;;;;5091212;28;20055;-65
2022/12/17 22:23:32;;;;;;;82.47;30.20;;;;;;;;;;5090625;28;20060;-65
2022/12/17 22:25:58;;;;;;;78.60;28.58;;;;;;;;;;5083519;28;20072;-65
2022/12/17 22:28:24;;;;;;;76.78;28.80;;;;;;;;;;5071053;28;20044;-65
2022/12/17 22:33:35;;;;;;;75.40;27.85;;;;;;;;;;5071380;28;20068;-65
2022/12/17 22:36:01;;;;;;;76.97;28.20;;;;;;;;;;5069622;28;20360;-65
2022/12/17 22:38:28;;;;;;;72.30;27.27;;;;;;;;;;5070556;28;20036;-65
2022/12/17 22:40:54;;;;;;;76.30;28.30;;;;;;;;;;5071250;28;20501;-65
2022/12/17 22:43:29;;;;;;;73.15;27.85;;;;;;;;;;5070865;28;20041;-65
2022/12/17 22:45:59;;;;;;;82.00;28.90;;;;;;;;;;5070429;28;20055;-65
2022/12/17 22:48:25;;;;;;;77.80;28.58;;;;;;;;;;5069605;28;20076;-65
2022/12/17 22:50:51;;;;;;;82.10;29.00;;;;;;;;;;5069507;28;20044;-65
2022/12/17 22:53:17;;;;;;;82.43;30.33;;;;;;;;;;5070594;28;20469;-65
2022/12/17 22:55:43;;;;;;;92.47;32.05;;;;;;;;;;5070516;28;20127;-65
2022/12/17 22:58:09;;;;;;;89.28;31.98;;;;;;;;;;5070909;28;20072;-65
2022/12/17 23:00:36;;;;;;;70.88;28.67;;;;;;;;;;5052528;28;20044;-65
2022/12/17 23:03:02;;;;;;;69.95;26.75;;;;;;;;;;5070691;28;20044;-65
2022/12/17 23:05:29;;;;;;;72.07;27.05;;;;;;;;;;5070777;28;20035;-65
2022/12/17 23:07:55;;;;;;;77.15;28.08;;;;;;;;;;5070469;28;20040;-65
2022/12/17 23:10:22;;;;;;;76.65;27.30;;;;;;;;;;5077885;28;20096;-65
2022/12/17 23:12:51;;;;;;;80.88;29.17;;;;;;;;;;5090717;28;20082;-65
2022/12/17 23:15:22;;;;;;;76.10;28.92;;;;;;;;;;5090086;28;20055;-65
2022/12/17 23:17:48;;;;;;;85.88;29.85;;;;;;;;;;5090527;28;20055;-65
2022/12/17 23:20:14;;;;;;;84.60;29.58;;;;;;;;;;5090787;28;20044;-65
2022/12/17 23:22:40;;;;;;;83.43;29.42;;;;;;;;;;5090472;28;20043;-65
2022/12/17 23:25:06;;;;;;;87.63;31.30;;;;;;;;;;5089916;28;20328;-65
2022/12/17 23:27:34;;;;;;;82.25;30.38;;;;;;;;;;5069419;28;20047;-65
2022/12/17 23:30:00;;;;;;;78.82;29.30;;;;;;;;;;5070163;28;20037;-65
2022/12/17 23:32:26;;;;;;;79.38;29.27;;;;;;;;;;5070089;28;20694;-65
2022/12/17 23:34:52;;;;;;;80.55;28.80;;;;;;;;;;5071746;28;20048;-65
2022/12/17 23:37:18;;;;;;;79.05;28.17;;;;;;;;;;5074278;28;20040;-65
2022/12/17 23:39:44;;;;;;;78.65;28.45;;;;;;;;;;5074472;28;20084;-65
2022/12/17 23:42:10;;;;;;;72.38;27.83;;;;;;;;;;5074388;28;20040;-65
2022/12/17 23:44:36;;;;;;;76.80;28.85;;;;;;;;;;5074141;28;20102;-65
2022/12/17 23:47:02;;;;;;;72.70;27.73;;;;;;;;;;5074495;28;20071;-65
2022/12/17 23:49:28;;;;;;;80.95;29.20;;;;;;;;;;5074191;28;20052;-65
2022/12/17 23:51:54;;;;;;;80.90;28.83;;;;;;;;;;5073942;28;20055;-65
2022/12/17 23:54:20;;;;;;;82.22;28.77;;;;;;;;;;5074018;28;20098;-65
2022/12/17 23:56:46;;;;;;;82.00;29.08;;;;;;;;;;5074211;28;20817;-65
2022/12/17 23:59:12;;;;;;;90.35;30.50;;;;;;;;;;5073872;28;20047;-65
